sensor_id;sensor_type;location;lat;lon;timestamp;P1;durP1;ratioP1;P2;durP2;ratioP2
37495;SDS011;23346;52.088;4.746;2023-05-21T00:02:07;5.10;;;3.40;;
37495;SDS011;23346;52.088;4.746;2023-05-21T00:04:36;7.37;;;3.27;;
37495;SDS011;23346;52.088;4.746;2023-05-21T00:07:04;4.00;;;3.60;;
37495;SDS011;23346;52.088;4.746;2023-05-21T00:09:30;3.87;;;3.50;;
37495;SDS011;23346;52.088;4.746;2023-05-21T00:11:56;4.67;;;3.57;;
37495;SDS011;23346;52.088;4.746;2023-05-21T00:14:22;4.97;;;3.80;;
37495;SDS011;23346;52.088;4.746;2023-05-21T00:16:48;6.90;;;3.63;;
37495;SDS011;23346;52.088;4.746;2023-05-21T00:19:14;3.70;;;2.97;;
37495;SDS011;23346;52.088;4.746;2023-05-21T00:21:40;4.50;;;3.83;;
37495;SDS011;23346;52.088;4.746;2023-05-21T00:24:06;5.27;;;3.40;;
37495;SDS011;23346;52.088;4.746;2023-05-21T00:26:32;5.97;;;3.87;;
37495;SDS011;23346;52.088;4.746;2023-05-21T00:28:58;7.03;;;3.80;;
37495;SDS011;23346;52.088;4.746;2023-05-21T00:31:24;7.57;;;3.63;;
37495;SDS011;23346;52.088;4.746;2023-05-21T00:33:50;4.53;;;4.10;;
37495;SDS011;23346;52.088;4.746;2023-05-21T00:36:16;5.83;;;3.77;;
37495;SDS011;23346;52.088;4.746;2023-05-21T00:38:42;4.77;;;4.33;;
37495;SDS011;23346;52.088;4.746;2023-05-21T00:41:09;5.83;;;4.00;;
37495;SDS011;23346;52.088;4.746;2023-05-21T00:43:35;4.67;;;3.43;;
37495;SDS011;23346;52.088;4.746;2023-05-21T00:46:05;4.67;;;3.73;;
37495;SDS011;23346;52.088;4.746;2023-05-21T00:48:31;4.70;;;3.80;;
37495;SDS011;23346;52.088;4.746;2023-05-21T00:50:57;6.17;;;3.97;;
37495;SDS011;23346;52.088;4.746;2023-05-21T00:53:23;7.97;;;4.07;;
37495;SDS011;23346;52.088;4.746;2023-05-21T00:55:49;7.37;;;4.67;;
37495;SDS011;23346;52.088;4.746;2023-05-21T00:58:15;4.70;;;3.65;;
37495;SDS011;23346;52.088;4.746;2023-05-21T01:00:42;8.00;;;4.30;;
37495;SDS011;23346;52.088;4.746;2023-05-21T01:03:08;5.47;;;4.03;;
37495;SDS011;23346;52.088;4.746;2023-05-21T01:05:34;6.13;;;4.13;;
37495;SDS011;23346;52.088;4.746;2023-05-21T01:08:01;10.87;;;3.93;;
37495;SDS011;23346;52.088;4.746;2023-05-21T01:10:27;6.67;;;4.50;;
37495;SDS011;23346;52.088;4.746;2023-05-21T01:12:54;5.03;;;3.60;;
37495;SDS011;23346;52.088;4.746;2023-05-21T01:15:21;5.17;;;3.20;;
37495;SDS011;23346;52.088;4.746;2023-05-21T01:17:47;6.97;;;3.90;;
37495;SDS011;23346;52.088;4.746;2023-05-21T01:20:16;4.53;;;3.63;;
37495;SDS011;23346;52.088;4.746;2023-05-21T01:22:53;7.83;;;3.80;;
37495;SDS011;23346;52.088;4.746;2023-05-21T01:25:20;6.40;;;3.53;;
37495;SDS011;23346;52.088;4.746;2023-05-21T01:27:46;4.33;;;3.50;;
37495;SDS011;23346;52.088;4.746;2023-05-21T01:30:13;5.23;;;3.33;;
37495;SDS011;23346;52.088;4.746;2023-05-21T01:35:21;4.13;;;3.27;;
37495;SDS011;23346;52.088;4.746;2023-05-21T01:40:19;5.50;;;3.47;;
37495;SDS011;23346;52.088;4.746;2023-05-21T01:42:47;5.20;;;3.37;;
37495;SDS011;23346;52.088;4.746;2023-05-21T01:45:13;3.93;;;2.77;;
37495;SDS011;23346;52.088;4.746;2023-05-21T01:47:40;5.20;;;3.50;;
37495;SDS011;23346;52.088;4.746;2023-05-21T01:50:07;3.63;;;3.03;;
37495;SDS011;23346;52.088;4.746;2023-05-21T01:52:33;5.82;;;3.28;;
37495;SDS011;23346;52.088;4.746;2023-05-21T01:55:00;7.30;;;3.77;;
37495;SDS011;23346;52.088;4.746;2023-05-21T01:57:26;7.20;;;3.37;;
37495;SDS011;23346;52.088;4.746;2023-05-21T01:59:52;4.40;;;3.43;;
37495;SDS011;23346;52.088;4.746;2023-05-21T02:02:18;4.22;;;2.95;;
37495;SDS011;23346;52.088;4.746;2023-05-21T02:04:44;6.63;;;3.60;;
37495;SDS011;23346;52.088;4.746;2023-05-21T02:07:10;4.13;;;3.40;;
37495;SDS011;23346;52.088;4.746;2023-05-21T02:09:39;4.73;;;3.37;;
37495;SDS011;23346;52.088;4.746;2023-05-21T02:12:05;7.10;;;4.33;;
37495;SDS011;23346;52.088;4.746;2023-05-21T02:14:31;5.50;;;2.97;;
37495;SDS011;23346;52.088;4.746;2023-05-21T02:16:58;6.70;;;3.67;;
37495;SDS011;23346;52.088;4.746;2023-05-21T02:19:24;5.13;;;3.70;;
37495;SDS011;23346;52.088;4.746;2023-05-21T02:21:50;5.87;;;4.17;;
37495;SDS011;23346;52.088;4.746;2023-05-21T02:24:16;7.97;;;4.33;;
37495;SDS011;23346;52.088;4.746;2023-05-21T02:26:42;5.28;;;3.70;;
37495;SDS011;23346;52.088;4.746;2023-05-21T02:29:08;5.73;;;3.77;;
37495;SDS011;23346;52.088;4.746;2023-05-21T02:31:34;8.27;;;4.05;;
37495;SDS011;23346;52.088;4.746;2023-05-21T02:34:00;9.67;;;4.17;;
37495;SDS011;23346;52.088;4.746;2023-05-21T02:36:26;6.63;;;4.30;;
37495;SDS011;23346;52.088;4.746;2023-05-21T02:38:52;7.47;;;3.30;;
37495;SDS011;23346;52.088;4.746;2023-05-21T02:41:19;5.77;;;3.67;;
37495;SDS011;23346;52.088;4.746;2023-05-21T02:43:45;5.50;;;4.20;;
37495;SDS011;23346;52.088;4.746;2023-05-21T02:46:11;6.87;;;3.80;;
37495;SDS011;23346;52.088;4.746;2023-05-21T02:48:37;9.00;;;4.50;;
37495;SDS011;23346;52.088;4.746;2023-05-21T02:51:03;7.47;;;3.50;;
37495;SDS011;23346;52.088;4.746;2023-05-21T02:53:29;5.03;;;3.43;;
37495;SDS011;23346;52.088;4.746;2023-05-21T02:55:55;8.77;;;3.60;;
37495;SDS011;23346;52.088;4.746;2023-05-21T02:58:21;5.18;;;4.03;;
37495;SDS011;23346;52.088;4.746;2023-05-21T03:00:49;8.00;;;4.05;;
37495;SDS011;23346;52.088;4.746;2023-05-21T03:03:15;9.63;;;4.57;;
37495;SDS011;23346;52.088;4.746;2023-05-21T03:05:41;4.83;;;3.83;;
37495;SDS011;23346;52.088;4.746;2023-05-21T03:08:06;4.23;;;3.30;;
37495;SDS011;23346;52.088;4.746;2023-05-21T03:10:32;5.87;;;4.43;;
37495;SDS011;23346;52.088;4.746;2023-05-21T03:12:58;5.57;;;4.27;;
37495;SDS011;23346;52.088;4.746;2023-05-21T03:15:25;7.83;;;3.90;;
37495;SDS011;23346;52.088;4.746;2023-05-21T03:17:51;5.17;;;4.00;;
37495;SDS011;23346;52.088;4.746;2023-05-21T03:20:18;5.20;;;4.33;;
37495;SDS011;23346;52.088;4.746;2023-05-21T03:22:44;6.40;;;3.87;;
37495;SDS011;23346;52.088;4.746;2023-05-21T03:25:10;6.25;;;4.30;;
37495;SDS011;23346;52.088;4.746;2023-05-21T03:27:37;5.07;;;3.93;;
37495;SDS011;23346;52.088;4.746;2023-05-21T03:30:03;6.40;;;4.13;;
37495;SDS011;23346;52.088;4.746;2023-05-21T03:32:29;8.57;;;4.27;;
37495;SDS011;23346;52.088;4.746;2023-05-21T03:34:57;5.60;;;4.40;;
37495;SDS011;23346;52.088;4.746;2023-05-21T03:37:23;7.10;;;4.53;;
37495;SDS011;23346;52.088;4.746;2023-05-21T03:39:50;6.63;;;3.90;;
37495;SDS011;23346;52.088;4.746;2023-05-21T03:42:16;6.47;;;4.40;;
37495;SDS011;23346;52.088;4.746;2023-05-21T03:44:42;7.77;;;4.80;;
37495;SDS011;23346;52.088;4.746;2023-05-21T03:47:08;5.30;;;4.20;;
37495;SDS011;23346;52.088;4.746;2023-05-21T03:49:34;6.67;;;4.30;;
37495;SDS011;23346;52.088;4.746;2023-05-21T03:52:00;6.23;;;4.60;;
37495;SDS011;23346;52.088;4.746;2023-05-21T03:54:26;6.67;;;4.43;;
37495;SDS011;23346;52.088;4.746;2023-05-21T03:56:51;7.23;;;4.27;;
37495;SDS011;23346;52.088;4.746;2023-05-21T03:59:17;6.35;;;4.78;;
37495;SDS011;23346;52.088;4.746;2023-05-21T04:01:43;5.90;;;4.30;;
37495;SDS011;23346;52.088;4.746;2023-05-21T04:04:09;6.18;;;4.45;;
37495;SDS011;23346;52.088;4.746;2023-05-21T04:06:35;7.05;;;4.63;;
37495;SDS011;23346;52.088;4.746;2023-05-21T04:09:02;5.77;;;3.90;;
37495;SDS011;23346;52.088;4.746;2023-05-21T04:11:28;7.95;;;4.70;;
37495;SDS011;23346;52.088;4.746;2023-05-21T04:13:55;7.53;;;4.60;;
37495;SDS011;23346;52.088;4.746;2023-05-21T04:16:21;8.77;;;4.23;;
37495;SDS011;23346;52.088;4.746;2023-05-21T04:18:48;5.90;;;4.10;;
37495;SDS011;23346;52.088;4.746;2023-05-21T04:21:14;6.67;;;4.27;;
37495;SDS011;23346;52.088;4.746;2023-05-21T04:23:40;5.53;;;4.50;;
37495;SDS011;23346;52.088;4.746;2023-05-21T04:26:06;8.40;;;4.27;;
37495;SDS011;23346;52.088;4.746;2023-05-21T04:28:32;6.73;;;4.27;;
37495;SDS011;23346;52.088;4.746;2023-05-21T04:30:59;7.32;;;4.05;;
37495;SDS011;23346;52.088;4.746;2023-05-21T04:33:25;8.23;;;4.13;;
37495;SDS011;23346;52.088;4.746;2023-05-21T04:35:52;6.75;;;4.45;;
37495;SDS011;23346;52.088;4.746;2023-05-21T04:38:18;8.43;;;4.33;;
37495;SDS011;23346;52.088;4.746;2023-05-21T04:40:48;7.35;;;4.95;;
37495;SDS011;23346;52.088;4.746;2023-05-21T04:43:17;7.53;;;4.73;;
37495;SDS011;23346;52.088;4.746;2023-05-21T04:45:49;10.57;;;5.18;;
37495;SDS011;23346;52.088;4.746;2023-05-21T04:48:15;8.17;;;5.37;;
37495;SDS011;23346;52.088;4.746;2023-05-21T04:50:42;7.45;;;4.75;;
37495;SDS011;23346;52.088;4.746;2023-05-21T04:53:08;7.90;;;4.28;;
37495;SDS011;23346;52.088;4.746;2023-05-21T04:55:34;7.03;;;4.20;;
37495;SDS011;23346;52.088;4.746;2023-05-21T04:58:04;7.70;;;4.97;;
37495;SDS011;23346;52.088;4.746;2023-05-21T05:00:30;8.90;;;4.23;;
37495;SDS011;23346;52.088;4.746;2023-05-21T05:02:57;8.90;;;4.78;;
37495;SDS011;23346;52.088;4.746;2023-05-21T05:05:23;10.53;;;4.53;;
37495;SDS011;23346;52.088;4.746;2023-05-21T05:07:49;8.77;;;4.90;;
37495;SDS011;23346;52.088;4.746;2023-05-21T05:10:15;10.70;;;4.45;;
37495;SDS011;23346;52.088;4.746;2023-05-21T05:12:41;7.03;;;3.90;;
37495;SDS011;23346;52.088;4.746;2023-05-21T05:15:07;6.77;;;4.30;;
37495;SDS011;23346;52.088;4.746;2023-05-21T05:17:33;7.22;;;4.47;;
37495;SDS011;23346;52.088;4.746;2023-05-21T05:19:59;6.18;;;4.35;;
37495;SDS011;23346;52.088;4.746;2023-05-21T05:22:25;7.07;;;4.10;;
37495;SDS011;23346;52.088;4.746;2023-05-21T05:24:51;7.43;;;4.40;;
37495;SDS011;23346;52.088;4.746;2023-05-21T05:27:17;5.65;;;4.35;;
37495;SDS011;23346;52.088;4.746;2023-05-21T05:29:43;8.25;;;4.63;;
37495;SDS011;23346;52.088;4.746;2023-05-21T05:32:09;7.80;;;4.60;;
37495;SDS011;23346;52.088;4.746;2023-05-21T05:34:36;7.50;;;4.20;;
37495;SDS011;23346;52.088;4.746;2023-05-21T05:37:02;7.32;;;4.25;;
37495;SDS011;23346;52.088;4.746;2023-05-21T05:39:28;7.80;;;4.60;;
37495;SDS011;23346;52.088;4.746;2023-05-21T05:41:54;8.90;;;4.72;;
37495;SDS011;23346;52.088;4.746;2023-05-21T05:44:20;5.07;;;4.00;;
37495;SDS011;23346;52.088;4.746;2023-05-21T05:46:46;8.63;;;4.00;;
37495;SDS011;23346;52.088;4.746;2023-05-21T05:49:12;4.60;;;3.45;;
37495;SDS011;23346;52.088;4.746;2023-05-21T05:51:39;7.40;;;4.38;;
37495;SDS011;23346;52.088;4.746;2023-05-21T05:54:05;7.65;;;4.47;;
37495;SDS011;23346;52.088;4.746;2023-05-21T05:56:31;6.85;;;4.43;;
37495;SDS011;23346;52.088;4.746;2023-05-21T05:58:57;7.50;;;4.47;;
37495;SDS011;23346;52.088;4.746;2023-05-21T06:01:23;7.10;;;4.90;;
37495;SDS011;23346;52.088;4.746;2023-05-21T06:03:50;5.20;;;3.83;;
37495;SDS011;23346;52.088;4.746;2023-05-21T06:06:16;7.32;;;3.60;;
37495;SDS011;23346;52.088;4.746;2023-05-21T06:08:42;7.60;;;4.70;;
37495;SDS011;23346;52.088;4.746;2023-05-21T06:11:08;7.47;;;4.97;;
37495;SDS011;23346;52.088;4.746;2023-05-21T06:13:35;6.32;;;4.53;;
37495;SDS011;23346;52.088;4.746;2023-05-21T06:16:01;9.10;;;5.57;;
37495;SDS011;23346;52.088;4.746;2023-05-21T06:18:27;6.55;;;4.60;;
37495;SDS011;23346;52.088;4.746;2023-05-21T06:20:53;8.02;;;5.03;;
37495;SDS011;23346;52.088;4.746;2023-05-21T06:23:19;14.48;;;5.07;;
37495;SDS011;23346;52.088;4.746;2023-05-21T06:25:45;7.13;;;4.50;;
37495;SDS011;23346;52.088;4.746;2023-05-21T06:28:11;9.75;;;4.78;;
37495;SDS011;23346;52.088;4.746;2023-05-21T06:30:37;11.25;;;4.88;;
37495;SDS011;23346;52.088;4.746;2023-05-21T06:33:03;11.82;;;5.25;;
37495;SDS011;23346;52.088;4.746;2023-05-21T06:35:29;11.27;;;5.43;;
37495;SDS011;23346;52.088;4.746;2023-05-21T06:37:55;5.95;;;4.45;;
37495;SDS011;23346;52.088;4.746;2023-05-21T06:40:21;8.35;;;4.93;;
37495;SDS011;23346;52.088;4.746;2023-05-21T06:42:47;6.90;;;4.57;;
37495;SDS011;23346;52.088;4.746;2023-05-21T06:45:13;7.88;;;4.72;;
37495;SDS011;23346;52.088;4.746;2023-05-21T06:47:39;9.18;;;5.00;;
37495;SDS011;23346;52.088;4.746;2023-05-21T06:50:05;9.30;;;5.70;;
37495;SDS011;23346;52.088;4.746;2023-05-21T06:52:31;8.15;;;5.05;;
37495;SDS011;23346;52.088;4.746;2023-05-21T06:54:57;6.00;;;4.60;;
37495;SDS011;23346;52.088;4.746;2023-05-21T06:57:23;6.82;;;4.47;;
37495;SDS011;23346;52.088;4.746;2023-05-21T06:59:49;9.55;;;5.30;;
37495;SDS011;23346;52.088;4.746;2023-05-21T07:02:15;6.72;;;4.68;;
37495;SDS011;23346;52.088;4.746;2023-05-21T07:04:41;9.13;;;5.00;;
37495;SDS011;23346;52.088;4.746;2023-05-21T07:07:07;6.65;;;4.10;;
37495;SDS011;23346;52.088;4.746;2023-05-21T07:09:33;10.95;;;4.72;;
37495;SDS011;23346;52.088;4.746;2023-05-21T07:11:59;9.55;;;5.10;;
37495;SDS011;23346;52.088;4.746;2023-05-21T07:14:26;7.55;;;4.75;;
37495;SDS011;23346;52.088;4.746;2023-05-21T07:16:52;9.90;;;4.93;;
37495;SDS011;23346;52.088;4.746;2023-05-21T07:19:18;7.75;;;4.45;;
37495;SDS011;23346;52.088;4.746;2023-05-21T07:21:44;6.18;;;4.90;;
37495;SDS011;23346;52.088;4.746;2023-05-21T07:24:10;7.78;;;4.20;;
37495;SDS011;23346;52.088;4.746;2023-05-21T07:26:36;7.82;;;4.80;;
37495;SDS011;23346;52.088;4.746;2023-05-21T07:29:02;6.78;;;4.20;;
37495;SDS011;23346;52.088;4.746;2023-05-21T07:31:29;8.63;;;4.18;;
37495;SDS011;23346;52.088;4.746;2023-05-21T07:33:55;6.60;;;4.40;;
37495;SDS011;23346;52.088;4.746;2023-05-21T07:36:21;8.13;;;4.72;;
37495;SDS011;23346;52.088;4.746;2023-05-21T07:38:47;8.13;;;4.82;;
37495;SDS011;23346;52.088;4.746;2023-05-21T07:41:13;8.07;;;4.53;;
37495;SDS011;23346;52.088;4.746;2023-05-21T07:43:39;8.15;;;5.18;;
37495;SDS011;23346;52.088;4.746;2023-05-21T07:46:05;7.63;;;4.35;;
37495;SDS011;23346;52.088;4.746;2023-05-21T07:48:31;8.73;;;4.45;;
37495;SDS011;23346;52.088;4.746;2023-05-21T07:50:57;8.40;;;4.50;;
37495;SDS011;23346;52.088;4.746;2023-05-21T07:53:23;9.07;;;4.78;;
37495;SDS011;23346;52.088;4.746;2023-05-21T07:55:49;7.32;;;4.40;;
37495;SDS011;23346;52.088;4.746;2023-05-21T07:58:16;7.05;;;4.68;;
37495;SDS011;23346;52.088;4.746;2023-05-21T08:00:43;7.80;;;4.85;;
37495;SDS011;23346;52.088;4.746;2023-05-21T08:03:12;7.82;;;4.80;;
37495;SDS011;23346;52.088;4.746;2023-05-21T08:05:38;7.00;;;4.43;;
37495;SDS011;23346;52.088;4.746;2023-05-21T08:08:04;7.75;;;4.80;;
37495;SDS011;23346;52.088;4.746;2023-05-21T08:10:30;6.93;;;4.57;;
37495;SDS011;23346;52.088;4.746;2023-05-21T08:12:56;8.85;;;4.53;;
37495;SDS011;23346;52.088;4.746;2023-05-21T08:15:22;8.32;;;5.20;;
37495;SDS011;23346;52.088;4.746;2023-05-21T08:17:48;8.00;;;4.65;;
37495;SDS011;23346;52.088;4.746;2023-05-21T08:20:14;9.05;;;4.88;;
37495;SDS011;23346;52.088;4.746;2023-05-21T08:22:40;7.68;;;4.40;;
37495;SDS011;23346;52.088;4.746;2023-05-21T08:25:07;9.38;;;4.95;;
37495;SDS011;23346;52.088;4.746;2023-05-21T08:27:33;6.57;;;4.07;;
37495;SDS011;23346;52.088;4.746;2023-05-21T08:29:59;6.97;;;4.40;;
37495;SDS011;23346;52.088;4.746;2023-05-21T08:32:25;8.10;;;4.53;;
37495;SDS011;23346;52.088;4.746;2023-05-21T08:34:51;6.55;;;4.22;;
37495;SDS011;23346;52.088;4.746;2023-05-21T08:37:17;8.30;;;3.63;;
37495;SDS011;23346;52.088;4.746;2023-05-21T08:39:43;6.50;;;4.32;;
37495;SDS011;23346;52.088;4.746;2023-05-21T08:42:23;7.68;;;4.28;;
37495;SDS011;23346;52.088;4.746;2023-05-21T08:44:51;6.30;;;3.75;;
37495;SDS011;23346;52.088;4.746;2023-05-21T08:47:19;6.13;;;4.25;;
37495;SDS011;23346;52.088;4.746;2023-05-21T08:49:46;8.05;;;4.75;;
37495;SDS011;23346;52.088;4.746;2023-05-21T08:52:13;7.13;;;4.00;;
37495;SDS011;23346;52.088;4.746;2023-05-21T08:54:39;8.23;;;4.43;;
37495;SDS011;23346;52.088;4.746;2023-05-21T08:57:05;9.70;;;4.63;;
37495;SDS011;23346;52.088;4.746;2023-05-21T08:59:31;8.32;;;3.67;;
37495;SDS011;23346;52.088;4.746;2023-05-21T09:01:57;5.95;;;4.28;;
37495;SDS011;23346;52.088;4.746;2023-05-21T09:04:23;8.70;;;4.10;;
37495;SDS011;23346;52.088;4.746;2023-05-21T09:06:51;5.60;;;3.58;;
37495;SDS011;23346;52.088;4.746;2023-05-21T09:09:23;7.72;;;3.75;;
37495;SDS011;23346;52.088;4.746;2023-05-21T09:11:50;10.52;;;4.55;;
37495;SDS011;23346;52.088;4.746;2023-05-21T09:14:16;4.55;;;3.40;;
37495;SDS011;23346;52.088;4.746;2023-05-21T09:16:44;5.80;;;3.67;;
37495;SDS011;23346;52.088;4.746;2023-05-21T09:19:12;6.78;;;3.63;;
37495;SDS011;23346;52.088;4.746;2023-05-21T09:21:38;6.95;;;3.88;;
37495;SDS011;23346;52.088;4.746;2023-05-21T09:24:04;6.32;;;3.65;;
37495;SDS011;23346;52.088;4.746;2023-05-21T09:26:30;5.80;;;4.00;;
37495;SDS011;23346;52.088;4.746;2023-05-21T09:28:57;8.90;;;4.05;;
37495;SDS011;23346;52.088;4.746;2023-05-21T09:31:24;6.47;;;4.15;;
37495;SDS011;23346;52.088;4.746;2023-05-21T09:33:50;7.18;;;3.83;;
37495;SDS011;23346;52.088;4.746;2023-05-21T09:36:17;5.97;;;3.75;;
37495;SDS011;23346;52.088;4.746;2023-05-21T09:38:44;11.32;;;3.75;;
37495;SDS011;23346;52.088;4.746;2023-05-21T09:41:10;5.13;;;3.17;;
37495;SDS011;23346;52.088;4.746;2023-05-21T09:43:36;6.28;;;3.35;;
37495;SDS011;23346;52.088;4.746;2023-05-21T09:46:02;6.60;;;3.35;;
37495;SDS011;23346;52.088;4.746;2023-05-21T09:48:35;5.18;;;3.88;;
37495;SDS011;23346;52.088;4.746;2023-05-21T09:53:33;5.18;;;3.53;;
37495;SDS011;23346;52.088;4.746;2023-05-21T09:55:59;5.90;;;3.38;;
37495;SDS011;23346;52.088;4.746;2023-05-21T09:58:25;4.65;;;3.17;;
37495;SDS011;23346;52.088;4.746;2023-05-21T10:00:51;7.47;;;2.92;;
37495;SDS011;23346;52.088;4.746;2023-05-21T10:03:17;5.00;;;3.70;;
37495;SDS011;23346;52.088;4.746;2023-05-21T10:05:46;4.93;;;3.05;;
37495;SDS011;23346;52.088;4.746;2023-05-21T10:08:13;7.40;;;3.45;;
37495;SDS011;23346;52.088;4.746;2023-05-21T10:10:39;6.28;;;3.20;;
37495;SDS011;23346;52.088;4.746;2023-05-21T10:13:10;4.80;;;3.65;;
37495;SDS011;23346;52.088;4.746;2023-05-21T10:15:37;6.35;;;3.50;;
37495;SDS011;23346;52.088;4.746;2023-05-21T10:18:05;5.28;;;3.63;;
37495;SDS011;23346;52.088;4.746;2023-05-21T10:20:33;6.63;;;3.78;;
37495;SDS011;23346;52.088;4.746;2023-05-21T10:22:59;6.82;;;3.60;;
37495;SDS011;23346;52.088;4.746;2023-05-21T10:25:26;5.18;;;2.92;;
37495;SDS011;23346;52.088;4.746;2023-05-21T10:27:53;5.75;;;3.47;;
37495;SDS011;23346;52.088;4.746;2023-05-21T10:30:20;7.95;;;3.70;;
37495;SDS011;23346;52.088;4.746;2023-05-21T10:32:46;6.97;;;3.78;;
37495;SDS011;23346;52.088;4.746;2023-05-21T10:35:14;7.97;;;4.03;;
37495;SDS011;23346;52.088;4.746;2023-05-21T10:37:42;9.80;;;4.35;;
37495;SDS011;23346;52.088;4.746;2023-05-21T10:40:08;6.75;;;3.85;;
37495;SDS011;23346;52.088;4.746;2023-05-21T10:50:23;6.30;;;3.60;;
37495;SDS011;23346;52.088;4.746;2023-05-21T11:00:19;7.47;;;4.13;;
37495;SDS011;23346;52.088;4.746;2023-05-21T11:02:47;5.68;;;3.95;;
37495;SDS011;23346;52.088;4.746;2023-05-21T11:05:13;5.85;;;4.15;;
37495;SDS011;23346;52.088;4.746;2023-05-21T11:10:30;10.85;;;4.82;;
37495;SDS011;23346;52.088;4.746;2023-05-21T11:13:14;6.43;;;3.47;;
37495;SDS011;23346;52.088;4.746;2023-05-21T11:21:04;6.82;;;4.15;;
37495;SDS011;23346;52.088;4.746;2023-05-21T11:26:18;9.45;;;3.80;;
37495;SDS011;23346;52.088;4.746;2023-05-21T11:28:49;7.63;;;4.00;;
37495;SDS011;23346;52.088;4.746;2023-05-21T11:34:06;7.68;;;4.25;;
37495;SDS011;23346;52.088;4.746;2023-05-21T11:36:32;8.38;;;4.35;;
37495;SDS011;23346;52.088;4.746;2023-05-21T11:39:17;7.68;;;4.47;;
37495;SDS011;23346;52.088;4.746;2023-05-21T11:44:20;11.38;;;4.75;;
37495;SDS011;23346;52.088;4.746;2023-05-21T11:46:47;10.73;;;4.50;;
37495;SDS011;23346;52.088;4.746;2023-05-21T11:49:13;6.82;;;4.13;;
37495;SDS011;23346;52.088;4.746;2023-05-21T11:51:40;8.38;;;4.35;;
37495;SDS011;23346;52.088;4.746;2023-05-21T11:54:07;7.60;;;4.05;;
37495;SDS011;23346;52.088;4.746;2023-05-21T11:56:34;7.72;;;4.28;;
37495;SDS011;23346;52.088;4.746;2023-05-21T11:59:01;7.53;;;4.63;;
37495;SDS011;23346;52.088;4.746;2023-05-21T12:01:27;7.57;;;4.80;;
37495;SDS011;23346;52.088;4.746;2023-05-21T12:03:54;8.57;;;4.65;;
37495;SDS011;23346;52.088;4.746;2023-05-21T12:06:24;7.15;;;4.50;;
37495;SDS011;23346;52.088;4.746;2023-05-21T12:08:50;6.88;;;4.50;;
37495;SDS011;23346;52.088;4.746;2023-05-21T12:11:21;7.85;;;4.78;;
37495;SDS011;23346;52.088;4.746;2023-05-21T12:13:47;5.85;;;4.35;;
37495;SDS011;23346;52.088;4.746;2023-05-21T12:16:14;8.13;;;4.07;;
37495;SDS011;23346;52.088;4.746;2023-05-21T12:18:40;7.07;;;4.72;;
37495;SDS011;23346;52.088;4.746;2023-05-21T12:21:06;8.93;;;5.05;;
37495;SDS011;23346;52.088;4.746;2023-05-21T12:23:32;8.63;;;5.10;;
37495;SDS011;23346;52.088;4.746;2023-05-21T12:25:58;8.63;;;4.63;;
37495;SDS011;23346;52.088;4.746;2023-05-21T12:28:24;9.02;;;5.15;;
37495;SDS011;23346;52.088;4.746;2023-05-21T12:30:50;5.63;;;4.80;;
37495;SDS011;23346;52.088;4.746;2023-05-21T12:33:17;11.98;;;5.22;;
37495;SDS011;23346;52.088;4.746;2023-05-21T12:35:46;9.88;;;5.45;;
37495;SDS011;23346;52.088;4.746;2023-05-21T12:38:13;9.35;;;4.90;;
37495;SDS011;23346;52.088;4.746;2023-05-21T12:40:40;8.18;;;5.47;;
37495;SDS011;23346;52.088;4.746;2023-05-21T12:43:07;7.28;;;4.43;;
37495;SDS011;23346;52.088;4.746;2023-05-21T12:45:33;8.50;;;4.95;;
37495;SDS011;23346;52.088;4.746;2023-05-21T12:48:01;11.70;;;4.80;;
37495;SDS011;23346;52.088;4.746;2023-05-21T12:50:27;11.98;;;3.95;;
37495;SDS011;23346;52.088;4.746;2023-05-21T12:52:53;9.00;;;5.00;;
37495;SDS011;23346;52.088;4.746;2023-05-21T12:55:20;9.07;;;4.72;;
37495;SDS011;23346;52.088;4.746;2023-05-21T12:57:46;9.82;;;5.13;;
37495;SDS011;23346;52.088;4.746;2023-05-21T13:00:12;7.15;;;4.28;;
37495;SDS011;23346;52.088;4.746;2023-05-21T13:02:39;10.90;;;5.15;;
37495;SDS011;23346;52.088;4.746;2023-05-21T13:05:06;8.10;;;4.90;;
37495;SDS011;23346;52.088;4.746;2023-05-21T13:07:33;8.30;;;4.97;;
37495;SDS011;23346;52.088;4.746;2023-05-21T13:10:00;9.20;;;5.05;;
37495;SDS011;23346;52.088;4.746;2023-05-21T13:12:28;9.23;;;5.28;;
37495;SDS011;23346;52.088;4.746;2023-05-21T13:14:55;8.90;;;4.80;;
37495;SDS011;23346;52.088;4.746;2023-05-21T13:17:22;12.43;;;5.20;;
37495;SDS011;23346;52.088;4.746;2023-05-21T13:22:33;8.15;;;5.00;;
37495;SDS011;23346;52.088;4.746;2023-05-21T13:24:59;6.80;;;4.30;;
37495;SDS011;23346;52.088;4.746;2023-05-21T13:27:25;8.18;;;4.63;;
37495;SDS011;23346;52.088;4.746;2023-05-21T13:29:51;7.57;;;3.90;;
37495;SDS011;23346;52.088;4.746;2023-05-21T13:32:17;8.55;;;4.72;;
37495;SDS011;23346;52.088;4.746;2023-05-21T13:34:43;6.72;;;4.25;;
37495;SDS011;23346;52.088;4.746;2023-05-21T13:37:10;6.45;;;4.15;;
37495;SDS011;23346;52.088;4.746;2023-05-21T13:39:36;6.53;;;4.18;;
37495;SDS011;23346;52.088;4.746;2023-05-21T13:42:02;12.63;;;5.15;;
37495;SDS011;23346;52.088;4.746;2023-05-21T13:44:29;6.10;;;4.40;;
37495;SDS011;23346;52.088;4.746;2023-05-21T13:46:59;8.98;;;5.00;;
37495;SDS011;23346;52.088;4.746;2023-05-21T13:49:25;9.13;;;5.20;;
37495;SDS011;23346;52.088;4.746;2023-05-21T13:51:51;10.13;;;5.40;;
37495;SDS011;23346;52.088;4.746;2023-05-21T13:54:17;8.55;;;3.95;;
37495;SDS011;23346;52.088;4.746;2023-05-21T13:56:43;8.50;;;4.53;;
37495;SDS011;23346;52.088;4.746;2023-05-21T13:59:09;8.70;;;5.20;;
37495;SDS011;23346;52.088;4.746;2023-05-21T14:01:35;9.40;;;4.15;;
37495;SDS011;23346;52.088;4.746;2023-05-21T14:04:01;9.82;;;4.50;;
37495;SDS011;23346;52.088;4.746;2023-05-21T14:06:30;8.73;;;4.95;;
37495;SDS011;23346;52.088;4.746;2023-05-21T14:08:56;8.15;;;4.18;;
37495;SDS011;23346;52.088;4.746;2023-05-21T14:11:22;7.63;;;5.22;;
37495;SDS011;23346;52.088;4.746;2023-05-21T14:13:48;10.00;;;4.95;;
37495;SDS011;23346;52.088;4.746;2023-05-21T14:16:15;8.55;;;4.88;;
37495;SDS011;23346;52.088;4.746;2023-05-21T14:18:42;7.60;;;4.88;;
37495;SDS011;23346;52.088;4.746;2023-05-21T14:21:07;8.63;;;5.47;;
37495;SDS011;23346;52.088;4.746;2023-05-21T14:23:33;10.80;;;5.43;;
37495;SDS011;23346;52.088;4.746;2023-05-21T14:25:59;9.48;;;5.05;;
37495;SDS011;23346;52.088;4.746;2023-05-21T14:28:25;10.68;;;4.90;;
37495;SDS011;23346;52.088;4.746;2023-05-21T14:30:51;9.75;;;5.03;;
37495;SDS011;23346;52.088;4.746;2023-05-21T14:33:17;8.68;;;4.50;;
37495;SDS011;23346;52.088;4.746;2023-05-21T14:35:43;8.70;;;4.30;;
37495;SDS011;23346;52.088;4.746;2023-05-21T14:38:11;8.38;;;4.40;;
37495;SDS011;23346;52.088;4.746;2023-05-21T14:40:37;8.60;;;4.63;;
37495;SDS011;23346;52.088;4.746;2023-05-21T14:43:03;9.50;;;4.78;;
37495;SDS011;23346;52.088;4.746;2023-05-21T14:45:30;7.30;;;4.53;;
37495;SDS011;23346;52.088;4.746;2023-05-21T14:47:59;11.65;;;4.97;;
37495;SDS011;23346;52.088;4.746;2023-05-21T14:50:25;10.70;;;4.32;;
37495;SDS011;23346;52.088;4.746;2023-05-21T14:52:50;8.50;;;4.10;;
37495;SDS011;23346;52.088;4.746;2023-05-21T14:55:17;11.02;;;4.85;;
37495;SDS011;23346;52.088;4.746;2023-05-21T14:57:46;6.80;;;4.57;;
37495;SDS011;23346;52.088;4.746;2023-05-21T15:00:12;8.00;;;4.93;;
37495;SDS011;23346;52.088;4.746;2023-05-21T15:02:38;9.77;;;5.05;;
37495;SDS011;23346;52.088;4.746;2023-05-21T15:05:04;7.68;;;4.05;;
37495;SDS011;23346;52.088;4.746;2023-05-21T15:07:30;7.95;;;4.72;;
37495;SDS011;23346;52.088;4.746;2023-05-21T15:09:56;10.25;;;4.78;;
37495;SDS011;23346;52.088;4.746;2023-05-21T15:12:22;6.93;;;4.43;;
37495;SDS011;23346;52.088;4.746;2023-05-21T15:14:48;8.60;;;4.68;;
37495;SDS011;23346;52.088;4.746;2023-05-21T15:17:14;7.32;;;4.35;;
37495;SDS011;23346;52.088;4.746;2023-05-21T15:19:40;5.53;;;3.97;;
37495;SDS011;23346;52.088;4.746;2023-05-21T15:22:06;6.43;;;3.40;;
37495;SDS011;23346;52.088;4.746;2023-05-21T15:24:32;7.53;;;4.30;;